Portada
METAR-TAF:

METAR-TAF

Aeropuertos :

Aeropuerto de Montpellier-Méditerranée

Montpellier, Francia

latitud: 43-35N, longitud: 003-58E, altitud: 5 m

Observación

El informe se hizo hace 38 minutos, a las 19:00 UTC
Viento 8 kt del norte-noreste
Temperatura 7°C
Humedad 76%
Presión 1018 hPa
Visibilidad 10 km o más
sin nubes por debajo de 1500 m y sin presencia de cumulonimbus.

METAR: LFMT 291900Z AUTO 03008KT CAVOK 07/03 Q1018 NOSIG

Hora: 20:38 (19:38 UTC)

Pronóstico

El informe se hizo hace 5 horas y 38 minutos, a las 14:00 UTC
Pronóstico válido del 29 a las 15 UTC al 30 a las 15 UTC
Viento 4 kt con dirección variable
Visibilidad 10 km o más
sin nubes por debajo de 1500 m y sin presencia de cumulonimbus.
Evolucionando progresivamente
del 29 a las 18 UTC al 29 a las 20 UTC
Viento 8 kt del norte-noreste

TAF: LFMT 291400Z 2915/3015 VRB04KT CAVOK BECMG 2918/2920 02008KT

Observaciones y pronósticos meteorológicos de más de 4000 aeropuertos (mensajes METAR y TAF).

Los puntos amarillos y rojos representan las estaciones disponibles.

Ponga el ratón en el punto deseado para ver el nombre de la estación.

Haga clic para ver las observaciones y los pronósticos meteorológicos.

Para cambiar el mapa : haga clic en los botones verdes con una cruz de color negro para hacer un zoom, en el botón verde con un guión para alejar o en las flechas verdes para mapas adyacentes.


METAR-TAF: